sensor_id;sensor_type;location;lat;lon;timestamp;pressure;altitude;pressure_sealevel;temperature;humidity
71903;BME280;59778;50.310;18.780;2023-04-21T00:00:11;98914.88;;;9.02;89.45
71903;BME280;59778;50.310;18.780;2023-04-21T00:15:51;98907.72;;;8.64;91.03
71903;BME280;59778;50.310;18.780;2023-04-21T00:31:12;98905.28;;;8.46;90.37
71903;BME280;59778;50.310;18.780;2023-04-21T00:46:34;98900.59;;;8.01;92.45
71903;BME280;59778;50.310;18.780;2023-04-21T01:01:56;98901.34;;;7.79;93.34
71903;BME280;59778;50.310;18.780;2023-04-21T01:17:18;98903.78;;;7.57;94.82
71903;BME280;59778;50.310;18.780;2023-04-21T01:32:39;98897.22;;;7.44;94.29
71903;BME280;59778;50.310;18.780;2023-04-21T01:48:00;98923.47;;;6.95;97.30
71903;BME280;59778;50.310;18.780;2023-04-21T02:03:21;98910.09;;;6.69;96.69
71903;BME280;59778;50.310;18.780;2023-04-21T02:18:43;98913.97;;;6.50;97.41
71903;BME280;59778;50.310;18.780;2023-04-21T02:34:04;98907.88;;;6.48;95.78
71903;BME280;59778;50.310;18.780;2023-04-21T02:49:26;98910.56;;;6.48;94.22
71903;BME280;59778;50.310;18.780;2023-04-21T03:04:47;98894.88;;;6.36;94.47
71903;BME280;59778;50.310;18.780;2023-04-21T03:20:08;98904.59;;;6.21;95.71
71903;BME280;59778;50.310;18.780;2023-04-21T03:35:30;98913.03;;;6.18;93.83
71903;BME280;59778;50.310;18.780;2023-04-21T03:50:52;98911.78;;;5.96;93.87
71903;BME280;59778;50.310;18.780;2023-04-21T04:06:13;98931.00;;;6.01;94.48
71903;BME280;59778;50.310;18.780;2023-04-21T04:21:34;98934.72;;;6.00;95.25
71903;BME280;59778;50.310;18.780;2023-04-21T04:36:56;98948.44;;;6.23;95.81
71903;BME280;59778;50.310;18.780;2023-04-21T04:52:17;98946.75;;;6.22;100.00
71903;BME280;59778;50.310;18.780;2023-04-21T05:07:38;98940.31;;;6.97;99.72
71903;BME280;59778;50.310;18.780;2023-04-21T05:23:00;98938.94;;;7.57;100.00
71903;BME280;59778;50.310;18.780;2023-04-21T05:38:21;98947.50;;;8.24;100.00
71903;BME280;59778;50.310;18.780;2023-04-21T05:53:44;98942.56;;;9.12;89.76
71903;BME280;59778;50.310;18.780;2023-04-21T06:09:05;98946.63;;;9.98;87.05
71903;BME280;59778;50.310;18.780;2023-04-21T06:24:31;98950.53;;;10.90;79.49
71903;BME280;59778;50.310;18.780;2023-04-21T06:39:52;98935.34;;;11.93;76.28
71903;BME280;59778;50.310;18.780;2023-04-21T06:55:14;98930.13;;;12.93;71.57
71903;BME280;59778;50.310;18.780;2023-04-21T07:10:35;98930.38;;;13.97;66.43
71903;BME280;59778;50.310;18.780;2023-04-21T07:25:57;98928.88;;;15.09;55.01
71903;BME280;59778;50.310;18.780;2023-04-21T07:41:18;98909.94;;;15.89;50.04
71903;BME280;59778;50.310;18.780;2023-04-21T07:56:40;98898.63;;;17.06;52.49
71903;BME280;59778;50.310;18.780;2023-04-21T08:12:01;98893.06;;;17.66;47.22
71903;BME280;59778;50.310;18.780;2023-04-21T08:27:23;98887.38;;;18.30;40.19
71903;BME280;59778;50.310;18.780;2023-04-21T08:42:44;98894.69;;;18.36;37.73
71903;BME280;59778;50.310;18.780;2023-04-21T08:58:05;98879.81;;;18.61;33.69
71903;BME280;59778;50.310;18.780;2023-04-21T09:13:31;98865.88;;;19.07;33.92
71903;BME280;59778;50.310;18.780;2023-04-21T09:28:53;98858.13;;;18.76;32.89
71903;BME280;59778;50.310;18.780;2023-04-21T09:44:14;98858.44;;;19.24;36.15
71903;BME280;59778;50.310;18.780;2023-04-21T09:59:41;98849.19;;;19.30;32.77
71903;BME280;59778;50.310;18.780;2023-04-21T10:15:05;98834.56;;;19.13;31.86
71903;BME280;59778;50.310;18.780;2023-04-21T10:30:47;98820.06;;;19.35;30.10
71903;BME280;59778;50.310;18.780;2023-04-21T10:46:33;98820.13;;;20.50;28.65
71903;BME280;59778;50.310;18.780;2023-04-21T11:01:56;98808.72;;;20.68;29.63
71903;BME280;59778;50.310;18.780;2023-04-21T11:17:18;98797.88;;;19.08;31.59
71903;BME280;59778;50.310;18.780;2023-04-21T11:32:41;98792.00;;;18.88;31.13
71903;BME280;59778;50.310;18.780;2023-04-21T11:48:15;98774.50;;;19.60;29.50
71903;BME280;59778;50.310;18.780;2023-04-21T12:03:37;98769.00;;;20.42;29.75
71903;BME280;59778;50.310;18.780;2023-04-21T12:18:58;98757.22;;;20.08;29.89
71903;BME280;59778;50.310;18.780;2023-04-21T12:34:20;98740.81;;;21.68;27.66
71903;BME280;59778;50.310;18.780;2023-04-21T12:49:41;98730.03;;;21.24;26.62
71903;BME280;59778;50.310;18.780;2023-04-21T13:05:02;98722.56;;;22.19;29.63
71903;BME280;59778;50.310;18.780;2023-04-21T13:20:25;98712.19;;;20.46;28.67
71903;BME280;59778;50.310;18.780;2023-04-21T13:35:46;98700.44;;;20.88;28.13
71903;BME280;59778;50.310;18.780;2023-04-21T13:51:09;98693.94;;;19.53;29.87
71903;BME280;59778;50.310;18.780;2023-04-21T14:06:30;98655.34;;;21.14;27.58
71903;BME280;59778;50.310;18.780;2023-04-21T14:21:51;98670.38;;;20.11;27.46
71903;BME280;59778;50.310;18.780;2023-04-21T14:37:13;98651.53;;;21.67;27.96
71903;BME280;59778;50.310;18.780;2023-04-21T14:52:34;98631.00;;;22.30;26.08
71903;BME280;59778;50.310;18.780;2023-04-21T15:07:56;98627.09;;;20.65;26.29
71903;BME280;59778;50.310;18.780;2023-04-21T15:23:20;98619.41;;;20.72;26.39
71903;BME280;59778;50.310;18.780;2023-04-21T15:38:41;98601.91;;;22.13;24.65
71903;BME280;59778;50.310;18.780;2023-04-21T15:54:05;98598.41;;;21.65;25.73
71903;BME280;59778;50.310;18.780;2023-04-21T16:09:26;98587.31;;;20.29;28.08
71903;BME280;59778;50.310;18.780;2023-04-21T16:24:48;98582.69;;;19.38;29.46
71903;BME280;59778;50.310;18.780;2023-04-21T16:40:10;98579.19;;;18.49;31.02
71903;BME280;59778;50.310;18.780;2023-04-21T16:55:31;98578.94;;;18.17;32.54
71903;BME280;59778;50.310;18.780;2023-04-21T17:10:52;98580.06;;;17.48;33.12
71903;BME280;59778;50.310;18.780;2023-04-21T17:26:15;98579.22;;;17.07;34.01
71903;BME280;59778;50.310;18.780;2023-04-21T17:41:37;98573.63;;;16.56;34.70
71903;BME280;59778;50.310;18.780;2023-04-21T17:56:58;98587.06;;;16.11;36.80
71903;BME280;59778;50.310;18.780;2023-04-21T18:12:19;98593.59;;;15.68;38.19
71903;BME280;59778;50.310;18.780;2023-04-21T18:27:41;98594.34;;;15.09;39.46
71903;BME280;59778;50.310;18.780;2023-04-21T18:43:05;98608.47;;;14.45;43.29
71903;BME280;59778;50.310;18.780;2023-04-21T18:58:27;98608.34;;;13.71;43.85
71903;BME280;59778;50.310;18.780;2023-04-21T19:13:48;98612.13;;;13.25;45.98
71903;BME280;59778;50.310;18.780;2023-04-21T19:29:10;98604.53;;;12.63;47.47
71903;BME280;59778;50.310;18.780;2023-04-21T19:44:34;98615.66;;;12.02;50.56
71903;BME280;59778;50.310;18.780;2023-04-21T19:59:56;98613.75;;;11.83;51.91
71903;BME280;59778;50.310;18.780;2023-04-21T20:15:17;98618.91;;;11.58;51.99
71903;BME280;59778;50.310;18.780;2023-04-21T20:30:39;98622.03;;;11.01;54.92
71903;BME280;59778;50.310;18.780;2023-04-21T20:46:02;98620.44;;;10.79;57.65
71903;BME280;59778;50.310;18.780;2023-04-21T21:01:24;98622.72;;;10.75;57.99
71903;BME280;59778;50.310;18.780;2023-04-21T21:16:45;98618.16;;;10.48;61.59
71903;BME280;59778;50.310;18.780;2023-04-21T21:32:07;98630.56;;;10.29;60.73
71903;BME280;59778;50.310;18.780;2023-04-21T21:47:28;98625.41;;;9.92;63.27
71903;BME280;59778;50.310;18.780;2023-04-21T22:02:49;98634.69;;;9.62;64.68
71903;BME280;59778;50.310;18.780;2023-04-21T22:18:11;98642.22;;;9.45;67.12
71903;BME280;59778;50.310;18.780;2023-04-21T22:33:32;98640.34;;;9.24;66.91
71903;BME280;59778;50.310;18.780;2023-04-21T22:48:53;98643.25;;;8.93;68.12
71903;BME280;59778;50.310;18.780;2023-04-21T23:04:16;98641.78;;;8.76;69.87
71903;BME280;59778;50.310;18.780;2023-04-21T23:19:38;98638.97;;;8.55;67.12
71903;BME280;59778;50.310;18.780;2023-04-21T23:34:59;98616.53;;;8.32;66.83
71903;BME280;59778;50.310;18.780;2023-04-21T23:50:20;98621.00;;;8.02;67.02
